Time;durP1;ratioP1;P1;durP2;ratioP2;P2;SDS_P1;SDS_P2;PMS_P1;PMS_P2;Temp;Humidity;BMP_temperature;BMP_pressure;BME280_temperature;BME280_humidity;BME280_pressure;Samples;Min_cycle;Max_cycle;Signal;HPM_P1;HPM_P2
2022/07/10 00:00:41;;;;;;;4.65;1.65;;;24.90;38.50;;;;;;5074848;28;20025;-72
2022/07/10 00:03:06;;;;;;;4.03;1.63;;;24.90;38.20;;;;;;5074958;28;20024;-70
2022/07/10 00:05:34;;;;;;;3.28;1.63;;;24.80;38.50;;;;;;5074796;28;20075;-72
2022/07/10 00:08:00;;;;;;;2.78;1.50;;;24.90;38.80;;;;;;5074792;28;20040;-72
2022/07/10 00:10:28;;;;;;;2.33;1.40;;;24.90;38.70;;;;;;5074767;28;20021;-71
2022/07/10 00:12:54;;;;;;;4.03;1.63;;;24.80;38.50;;;;;;5074661;28;20048;-71
2022/07/10 00:15:20;;;;;;;8.40;1.83;;;24.90;38.60;;;;;;5073008;28;20076;-72
2022/07/10 00:17:47;;;;;;;2.55;1.50;;;24.90;38.60;;;;;;5073231;28;20456;-71
2022/07/10 00:20:14;;;;;;;2.60;1.40;;;24.90;38.60;;;;;;5073223;28;20083;-73
2022/07/10 00:22:41;;;;;;;3.03;1.55;;;24.90;38.80;;;;;;5074614;28;20104;-71
2022/07/10 00:25:09;;;;;;;4.75;1.60;;;24.90;38.70;;;;;;5072953;28;20544;-71
2022/07/10 00:27:35;;;;;;;4.15;1.55;;;25.00;38.50;;;;;;5074069;28;20028;-72
2022/07/10 00:30:01;;;;;;;8.88;1.95;;;24.90;38.50;;;;;;5074183;28;20035;-71
2022/07/10 00:32:27;;;;;;;6.20;1.52;;;24.90;38.70;;;;;;5073210;28;20034;-73
2022/07/10 00:34:53;;;;;;;4.97;1.88;;;24.80;38.70;;;;;;5074246;28;20074;-72
2022/07/10 00:37:21;;;;;;;4.45;1.60;;;24.80;38.80;;;;;;5074322;28;20429;-69
2022/07/10 00:39:47;;;;;;;2.95;1.40;;;24.70;38.70;;;;;;5074292;28;20092;-72
2022/07/10 00:42:14;;;;;;;2.28;1.30;;;24.70;39.10;;;;;;5074106;28;20028;-71
2022/07/10 00:44:41;;;;;;;3.38;1.55;;;24.60;39.10;;;;;;5074054;28;20027;-73
2022/07/10 00:47:07;;;;;;;5.97;1.48;;;24.50;39.10;;;;;;5073972;28;20040;-72
2022/07/10 00:49:38;;;;;;;4.55;1.50;;;24.40;39.20;;;;;;5073954;28;20505;-70
2022/07/10 00:52:07;;;;;;;2.78;1.48;;;24.40;39.30;;;;;;5074034;28;20024;-71
2022/07/10 00:54:37;;;;;;;3.70;1.75;;;24.40;39.40;;;;;;5073574;28;20060;-71
2022/07/10 00:57:07;;;;;;;2.85;1.40;;;24.40;39.60;;;;;;5072327;28;20021;-71
2022/07/10 00:59:34;;;;;;;5.13;1.50;;;24.40;39.60;;;;;;5073751;28;20028;-73
2022/07/10 01:02:03;;;;;;;4.03;1.50;;;24.30;39.50;;;;;;5072147;28;20062;-73
2022/07/10 01:04:30;;;;;;;3.78;1.60;;;24.30;39.50;;;;;;5073602;28;20035;-72
2022/07/10 01:06:56;;;;;;;4.22;1.60;;;24.30;39.70;;;;;;5073560;28;20189;-70
2022/07/10 01:09:22;;;;;;;5.57;1.45;;;24.40;39.40;;;;;;5073638;28;20548;-70
2022/07/10 01:11:48;;;;;;;4.03;1.50;;;24.30;39.40;;;;;;5073420;28;20476;-71
2022/07/10 01:14:15;;;;;;;3.08;1.52;;;24.20;39.70;;;;;;5073483;28;20095;-72
2022/07/10 01:16:41;;;;;;;3.53;1.30;;;24.20;39.70;;;;;;5073291;28;20060;-70
2022/07/10 01:19:07;;;;;;;4.53;1.48;;;24.20;39.60;;;;;;5073342;28;20043;-70
2022/07/10 01:21:35;;;;;;;3.63;1.63;;;24.20;39.70;;;;;;5073219;28;20016;-71
2022/07/10 01:24:06;;;;;;;2.83;1.30;;;24.20;40.00;;;;;;5073600;28;20034;-71
2022/07/10 01:26:31;;;;;;;3.05;1.40;;;24.20;40.50;;;;;;5073131;28;20044;-70
2022/07/10 01:28:58;;;;;;;3.13;1.50;;;24.10;40.10;;;;;;5073475;28;20035;-71
2022/07/10 01:31:27;;;;;;;3.03;1.30;;;24.10;40.30;;;;;;5073462;28;20025;-71
2022/07/10 01:33:54;;;;;;;3.08;1.38;;;24.00;40.30;;;;;;5073401;28;20377;-71
2022/07/10 01:36:22;;;;;;;4.03;1.48;;;24.10;40.80;;;;;;5071712;28;20119;-70
2022/07/10 01:38:50;;;;;;;5.40;1.30;;;24.10;40.90;;;;;;5073571;28;20023;-72
2022/07/10 01:41:16;;;;;;;3.40;1.50;;;24.10;41.10;;;;;;5074025;28;20557;-71
2022/07/10 01:43:44;;;;;;;5.13;1.40;;;24.00;40.60;;;;;;5073099;28;20060;-71
2022/07/10 01:46:11;;;;;;;3.30;1.48;;;23.90;40.80;;;;;;5074085;28;20042;-71
2022/07/10 01:48:38;;;;;;;3.90;1.50;;;23.90;41.00;;;;;;5073050;28;20020;-70
2022/07/10 01:51:07;;;;;;;3.95;1.20;;;23.90;41.30;;;;;;5072986;28;20503;-71
2022/07/10 01:53:34;;;;;;;4.70;1.40;;;23.80;40.00;;;;;;5072978;28;20025;-70
2022/07/10 01:56:03;;;;;;;4.45;1.35;;;23.80;41.60;;;;;;5073009;28;20474;-71
2022/07/10 01:58:29;;;;;;;5.22;1.50;;;23.80;41.70;;;;;;5073034;28;20025;-71
2022/07/10 02:00:55;;;;;;;5.03;1.50;;;23.70;42.10;;;;;;5073074;28;20028;-73
2022/07/10 02:06:05;;;;;;;4.22;1.52;;;23.70;40.80;;;;;;5072858;28;20157;-71
2022/07/10 02:08:30;;;;;;;3.85;1.60;;;23.70;41.50;;;;;;5071769;28;20021;-71
2022/07/10 02:10:56;;;;;;;2.95;1.10;;;23.70;41.90;;;;;;5071725;28;20309;-73
2022/07/10 02:13:24;;;;;;;3.55;1.42;;;23.70;41.90;;;;;;5073117;28;20021;-72
2022/07/10 02:15:50;;;;;;;3.38;1.25;;;23.80;42.00;;;;;;5072576;28;20106;-70
2022/07/10 02:18:16;;;;;;;2.83;1.20;;;23.80;42.00;;;;;;5072976;28;20029;-70
2022/07/10 02:20:41;;;;;;;3.00;1.20;;;23.80;41.90;;;;;;5071471;28;20385;-70
2022/07/10 02:23:07;;;;;;;4.40;1.70;;;23.80;42.00;;;;;;5072809;28;20023;-71
2022/07/10 02:25:36;;;;;;;3.10;1.33;;;23.80;42.10;;;;;;5071586;28;20115;-70
2022/07/10 02:28:01;;;;;;;3.80;1.50;;;23.80;42.30;;;;;;5072756;28;20024;-73
2022/07/10 02:30:27;;;;;;;6.05;1.35;;;23.80;42.40;;;;;;5072837;28;20033;-70
2022/07/10 02:32:53;;;;;;;2.08;1.20;;;23.90;42.10;;;;;;5072774;28;20040;-70
2022/07/10 02:35:18;;;;;;;5.20;1.35;;;23.90;42.00;;;;;;5072603;28;20480;-71
2022/07/10 02:37:44;;;;;;;3.00;1.15;;;23.80;42.10;;;;;;5072694;28;20079;-71
2022/07/10 02:40:10;;;;;;;7.97;1.48;;;23.80;42.20;;;;;;5072884;28;20066;-71
2022/07/10 02:42:36;;;;;;;3.67;1.30;;;23.80;42.30;;;;;;5071511;28;20013;-72
2022/07/10 02:45:03;;;;;;;2.95;1.30;;;23.80;42.30;;;;;;5072306;28;20060;-72
2022/07/10 02:47:29;;;;;;;3.63;1.20;;;23.70;42.50;;;;;;5072682;28;20072;-72
2022/07/10 02:49:55;;;;;;;3.65;1.30;;;23.70;42.50;;;;;;5072897;28;20054;-70
2022/07/10 02:52:20;;;;;;;3.75;1.52;;;23.80;42.70;;;;;;5072624;28;20032;-72
2022/07/10 02:54:46;;;;;;;4.20;1.30;;;23.90;42.40;;;;;;5072571;28;20389;-71
2022/07/10 02:57:12;;;;;;;3.92;1.27;;;23.90;42.40;;;;;;5076205;28;20102;-72
2022/07/10 02:59:38;;;;;;;2.35;1.20;;;23.80;42.40;;;;;;5076201;28;20024;-72
2022/07/10 03:02:04;;;;;;;1.95;1.10;;;23.80;42.60;;;;;;5074818;28;20103;-71
2022/07/10 03:04:29;;;;;;;2.75;1.27;;;23.80;42.40;;;;;;5076261;28;20032;-70
2022/07/10 03:06:55;;;;;;;4.45;1.17;;;23.70;42.80;;;;;;5076169;28;20086;-71
2022/07/10 03:09:21;;;;;;;4.95;1.40;;;23.70;42.80;;;;;;5075989;28;20496;-71
2022/07/10 03:11:46;;;;;;;3.45;1.30;;;23.70;43.00;;;;;;5075923;28;20031;-70
2022/07/10 03:14:12;;;;;;;3.45;1.02;;;23.70;42.80;;;;;;5075794;28;20444;-70
2022/07/10 03:16:38;;;;;;;4.00;1.20;;;23.70;42.80;;;;;;5075508;28;20063;-71
2022/07/10 03:19:03;;;;;;;2.17;1.20;;;23.70;42.80;;;;;;5075999;28;20021;-70
2022/07/10 03:21:32;;;;;;;4.35;1.23;;;23.70;42.90;;;;;;5075706;28;20052;-72
2022/07/10 03:23:57;;;;;;;5.50;1.30;;;23.70;41.60;;;;;;5075996;28;20040;-72
2022/07/10 03:26:23;;;;;;;4.22;1.40;;;23.70;42.90;;;;;;5075564;28;20028;-70
2022/07/10 03:28:49;;;;;;;3.15;1.33;;;23.70;42.80;;;;;;5075832;28;20028;-71
2022/07/10 03:31:14;;;;;;;4.90;1.10;;;23.60;43.10;;;;;;5075477;28;20021;-70
2022/07/10 03:33:40;;;;;;;3.50;1.27;;;23.70;43.10;;;;;;5075295;28;20115;-70
2022/07/10 03:36:06;;;;;;;2.92;1.40;;;23.70;43.20;;;;;;5075175;28;20020;-70
2022/07/10 03:38:32;;;;;;;3.13;1.50;;;23.70;43.00;;;;;;5075490;28;20098;-71
2022/07/10 03:40:58;;;;;;;4.40;1.55;;;23.70;43.20;;;;;;5075286;28;20457;-70
2022/07/10 03:43:24;;;;;;;2.13;1.20;;;23.70;43.00;;;;;;5075335;28;20050;-71
2022/07/10 03:45:50;;;;;;;4.38;1.40;;;23.70;43.10;;;;;;5075081;28;20067;-72
2022/07/10 03:48:16;;;;;;;8.02;1.38;;;23.70;43.90;;;;;;5074990;28;20500;-71
2022/07/10 03:50:42;;;;;;;2.38;1.27;;;23.70;42.90;;;;;;5073805;28;20062;-71
2022/07/10 03:53:08;;;;;;;2.33;1.20;;;23.70;42.90;;;;;;5075055;28;20017;-73
2022/07/10 03:55:33;;;;;;;3.40;1.40;;;23.70;42.80;;;;;;5075355;28;20484;-71
2022/07/10 03:58:02;;;;;;;5.93;1.60;;;23.60;42.80;;;;;;5074780;28;20024;-70
2022/07/10 04:00:31;;;;;;;4.30;1.10;;;23.60;42.80;;;;;;5077548;28;20150;-71
2022/07/10 04:03:02;;;;;;;3.25;1.25;;;23.50;43.20;;;;;;5081206;28;20029;-72
2022/07/10 04:05:29;;;;;;;3.58;1.50;;;23.50;43.50;;;;;;5075663;28;20055;-70
2022/07/10 04:07:59;;;;;;;2.58;1.15;;;23.50;43.40;;;;;;5074808;28;20090;-70
2022/07/10 04:10:26;;;;;;;4.72;1.33;;;23.50;43.20;;;;;;5073455;28;20025;-70
2022/07/10 04:12:52;;;;;;;4.00;1.00;;;23.50;43.20;;;;;;5074853;28;20029;-71
2022/07/10 04:15:18;;;;;;;1.50;1.10;;;23.50;43.00;;;;;;5074445;28;20043;-69
2022/07/10 04:17:44;;;;;;;2.00;1.17;;;23.50;43.20;;;;;;5073167;28;20028;-69
2022/07/10 04:20:10;;;;;;;2.65;1.30;;;23.50;43.20;;;;;;5074466;28;20100;-71
2022/07/10 04:22:36;;;;;;;2.35;1.08;;;23.50;43.00;;;;;;5074545;28;20099;-72
2022/07/10 04:25:03;;;;;;;5.13;1.20;;;23.50;43.10;;;;;;5074301;28;20063;-72
2022/07/10 04:27:31;;;;;;;3.72;1.30;;;23.40;42.80;;;;;;5074095;28;20036;-71
2022/07/10 04:29:57;;;;;;;3.95;1.20;;;23.50;43.30;;;;;;5074443;28;20122;-71
2022/07/10 04:32:23;;;;;;;4.32;1.40;;;23.50;43.20;;;;;;5074296;28;20437;-71
2022/07/10 04:34:48;;;;;;;6.90;1.30;;;23.40;42.90;;;;;;5074247;28;20027;-71
2022/07/10 04:37:14;;;;;;;5.53;1.42;;;23.40;43.30;;;;;;5074334;28;20031;-73
2022/07/10 04:39:40;;;;;;;4.00;1.20;;;23.40;43.10;;;;;;5073985;28;20055;-70
2022/07/10 04:42:07;;;;;;;3.08;1.15;;;23.40;43.10;;;;;;5074357;28;20508;-70
2022/07/10 04:44:34;;;;;;;3.83;1.27;;;23.40;43.40;;;;;;5074099;28;20049;-72
2022/07/10 04:46:59;;;;;;;4.38;1.40;;;23.50;43.20;;;;;;5074047;28;20055;-70
2022/07/10 04:49:25;;;;;;;3.30;1.30;;;23.50;43.00;;;;;;5074066;28;20533;-70
2022/07/10 04:51:51;;;;;;;5.70;1.45;;;23.40;42.80;;;;;;5073856;28;20070;-70
2022/07/10 04:54:17;;;;;;;3.83;1.50;;;23.50;42.90;;;;;;5073733;28;20106;-71
2022/07/10 04:56:43;;;;;;;5.78;1.33;;;23.40;42.70;;;;;;5074089;28;20052;-70
2022/07/10 04:59:09;;;;;;;3.10;1.13;;;23.40;42.80;;;;;;5073628;28;20112;-71
2022/07/10 05:01:37;;;;;;;2.78;1.45;;;23.40;43.00;;;;;;5073875;28;20624;-69
2022/07/10 05:04:03;;;;;;;4.57;1.23;;;23.40;42.70;;;;;;5073470;28;20142;-70
2022/07/10 05:06:29;;;;;;;7.43;1.42;;;23.50;42.70;;;;;;5073585;28;20111;-70
2022/07/10 05:08:55;;;;;;;5.18;1.30;;;23.60;42.80;;;;;;5073434;28;20025;-69
2022/07/10 05:11:21;;;;;;;4.43;1.10;;;23.60;42.60;;;;;;5073715;28;20020;-70
2022/07/10 05:13:48;;;;;;;4.13;1.30;;;23.60;42.50;;;;;;5073548;28;20082;-69
2022/07/10 05:16:17;;;;;;;5.18;1.90;;;23.70;42.20;;;;;;5073079;28;20110;-71
2022/07/10 05:18:43;;;;;;;3.45;1.27;;;23.70;40.90;;;;;;5072965;28;20099;-70
2022/07/10 05:21:10;;;;;;;3.80;1.42;;;23.70;42.40;;;;;;5073300;28;20055;-71
2022/07/10 05:23:37;;;;;;;6.05;1.40;;;23.90;43.10;;;;;;5073475;28;20028;-71
2022/07/10 05:26:03;;;;;;;7.15;1.67;;;24.10;42.40;;;;;;5072985;28;20028;-71
2022/07/10 05:28:29;;;;;;;4.57;1.42;;;24.40;41.90;;;;;;5073374;28;20362;-71
2022/07/10 05:30:54;;;;;;;8.18;1.30;;;24.80;41.40;;;;;;5073205;28;20017;-71
2022/07/10 05:33:21;;;;;;;5.25;1.58;;;25.30;40.90;;;;;;5072954;28;20052;-70
2022/07/10 05:35:47;;;;;;;4.18;1.30;;;25.70;40.10;;;;;;5073031;28;20017;-71
2022/07/10 05:38:12;;;;;;;2.58;1.25;;;26.00;39.70;;;;;;5073284;28;20031;-71
2022/07/10 05:40:38;;;;;;;2.17;1.25;;;26.30;39.20;;;;;;5073108;28;20025;-71
2022/07/10 05:43:04;;;;;;;2.47;1.17;;;26.50;38.60;;;;;;5072917;28;20135;-70
2022/07/10 05:45:29;;;;;;;3.20;1.20;;;26.80;38.30;;;;;;5072927;28;20017;-72
2022/07/10 05:47:56;;;;;;;3.67;1.35;;;27.10;38.10;;;;;;5073041;28;20461;-71
2022/07/10 05:50:22;;;;;;;2.55;1.20;;;27.50;37.30;;;;;;5072995;28;20094;-71
2022/07/10 05:52:48;;;;;;;5.40;1.48;;;27.90;37.10;;;;;;5073182;28;20079;-71
2022/07/10 05:55:14;;;;;;;3.38;1.20;;;28.40;36.30;;;;;;5073101;28;20048;-69
2022/07/10 05:57:40;;;;;;;4.55;1.35;;;28.50;35.70;;;;;;5073019;28;20023;-73
2022/07/10 06:00:07;;;;;;;3.78;1.50;;;28.60;35.90;;;;;;5072935;28;20024;-71
2022/07/10 06:02:33;;;;;;;6.55;1.20;;;28.70;35.70;;;;;;5072936;28;20373;-72
2022/07/10 06:04:59;;;;;;;3.80;1.30;;;28.70;35.50;;;;;;5072659;28;20029;-71
2022/07/10 06:07:26;;;;;;;3.88;1.35;;;28.70;35.30;;;;;;5072831;28;20036;-71
2022/07/10 06:09:52;;;;;;;4.13;1.30;;;28.60;35.90;;;;;;5072853;28;20025;-72
2022/07/10 06:12:18;;;;;;;4.85;1.80;;;28.50;35.70;;;;;;5072795;28;20098;-73
2022/07/10 06:14:43;;;;;;;6.22;1.42;;;28.50;35.70;;;;;;5072524;28;20078;-71
2022/07/10 06:17:09;;;;;;;2.85;1.20;;;28.60;35.70;;;;;;5072497;28;20052;-72
2022/07/10 06:19:36;;;;;;;2.65;1.20;;;28.80;35.70;;;;;;5073079;28;20405;-72
2022/07/10 06:24:46;;;;;;;3.88;1.08;;;29.00;35.20;;;;;;5072407;28;20082;-72
2022/07/10 06:27:12;;;;;;;4.00;1.30;;;29.10;35.00;;;;;;5072325;28;20033;-73
2022/07/10 06:29:38;;;;;;;3.45;1.38;;;29.30;35.00;;;;;;5072535;28;20149;-73
2022/07/10 06:32:04;;;;;;;2.70;1.38;;;29.70;34.50;;;;;;5076139;28;20026;-72
2022/07/10 06:34:30;;;;;;;4.22;1.20;;;30.00;34.20;;;;;;5076468;28;20096;-71
2022/07/10 06:36:56;;;;;;;2.17;1.20;;;30.10;34.00;;;;;;5076262;28;20102;-73
2022/07/10 06:39:21;;;;;;;5.10;1.60;;;30.20;33.90;;;;;;5076039;28;20024;-73
2022/07/10 06:41:47;;;;;;;3.92;1.13;;;30.30;33.60;;;;;;5075914;28;20036;-71
2022/07/10 06:44:13;;;;;;;2.38;1.17;;;30.30;33.70;;;;;;5075958;28;20083;-71
2022/07/10 06:46:38;;;;;;;7.25;1.60;;;30.30;33.60;;;;;;5075919;28;20037;-73
2022/07/10 06:49:05;;;;;;;7.88;1.70;;;30.50;33.70;;;;;;5076007;28;20056;-72
2022/07/10 06:51:31;;;;;;;4.30;1.02;;;30.80;33.20;;;;;;5075615;28;20055;-73
2022/07/10 06:53:57;;;;;;;4.15;1.27;;;30.70;32.80;;;;;;5074318;28;20029;-72
2022/07/10 06:56:23;;;;;;;2.65;1.38;;;30.90;32.70;;;;;;5075439;28;20025;-71
2022/07/10 06:58:49;;;;;;;2.80;1.30;;;31.00;32.60;;;;;;5075882;28;20388;-71
2022/07/10 07:01:14;;;;;;;4.32;1.25;;;30.90;32.40;;;;;;5075574;28;20024;-71
2022/07/10 07:03:40;;;;;;;5.65;1.38;;;31.00;32.60;;;;;;5075445;28;20461;-72
2022/07/10 07:06:06;;;;;;;3.55;1.27;;;31.00;32.60;;;;;;5075323;28;20028;-73
2022/07/10 07:08:31;;;;;;;4.97;1.40;;;30.90;33.30;;;;;;5075367;28;20095;-73
2022/07/10 07:10:57;;;;;;;5.88;1.30;;;30.90;33.00;;;;;;5075174;28;20361;-72
2022/07/10 07:13:23;;;;;;;5.78;1.20;;;31.20;32.60;;;;;;5074252;28;20441;-72
2022/07/10 07:16:04;;;;;;;2.78;1.40;;;31.30;32.50;;;;;;5074928;28;20044;-72
2022/07/10 07:18:35;;;;;;;5.30;1.38;;;31.30;32.20;;;;;;5075331;28;20067;-72
2022/07/10 07:23:45;;;;;;;4.13;2.45;;;31.40;32.00;;;;;;5075084;28;20114;-72
2022/07/10 07:26:11;;;;;;;4.18;1.27;;;31.50;31.90;;;;;;5074770;28;20422;-74
2022/07/10 07:28:36;;;;;;;5.93;1.50;;;31.60;31.50;;;;;;5075036;28;20488;-71
2022/07/10 07:31:03;;;;;;;3.35;1.30;;;31.50;31.60;;;;;;5075202;28;20070;-71
2022/07/10 07:33:29;;;;;;;5.68;1.55;;;31.40;31.40;;;;;;5074938;28;20111;-72
2022/07/10 07:35:55;;;;;;;5.38;1.70;;;31.30;31.40;;;;;;5074922;28;20103;-72
2022/07/10 07:38:21;;;;;;;9.25;4.57;;;31.40;31.80;;;;;;5080162;28;20477;-73
2022/07/10 07:40:46;;;;;;;3.72;1.52;;;31.60;31.50;;;;;;5074520;28;20102;-73
2022/07/10 07:43:12;;;;;;;3.97;1.73;;;31.40;32.00;;;;;;5073638;28;20491;-74
2022/07/10 07:45:38;;;;;;;4.32;1.20;;;31.40;31.50;;;;;;5074760;28;20025;-73
2022/07/10 07:48:04;;;;;;;6.55;3.20;;;31.30;31.60;;;;;;5075001;28;20039;-73
2022/07/10 07:50:34;;;;;;;3.65;1.90;;;31.20;31.70;;;;;;5075022;28;20021;-72
2022/07/10 07:53:01;;;;;;;3.60;1.50;;;31.20;31.70;;;;;;5074859;28;20032;-72
2022/07/10 07:55:27;;;;;;;4.90;1.60;;;31.20;31.90;;;;;;5074461;28;20428;-72
2022/07/10 07:57:55;;;;;;;7.80;5.45;;;31.20;32.20;;;;;;5074371;28;20102;-72
2022/07/10 08:00:26;;;;;;;4.45;2.10;;;31.20;32.00;;;;;;5074569;28;20095;-74
2022/07/10 08:02:53;;;;;;;3.17;1.50;;;31.10;32.50;;;;;;5074359;28;20025;-72
2022/07/10 08:05:19;;;;;;;5.65;2.35;;;31.20;32.50;;;;;;5074198;28;20021;-73
2022/07/10 08:07:54;;;;;;;5.07;1.90;;;31.30;32.00;;;;;;5074304;28;20090;-73
2022/07/10 08:10:23;;;;;;;4.88;1.67;;;31.20;32.10;;;;;;5074475;28;20048;-72
2022/07/10 08:12:50;;;;;;;2.72;1.48;;;31.20;32.50;;;;;;5073194;28;20032;-72
2022/07/10 08:15:18;;;;;;;2.40;1.10;;;31.00;32.50;;;;;;5073939;28;20020;-73
2022/07/10 08:17:47;;;;;;;4.03;1.55;;;30.80;32.70;;;;;;5073746;28;20198;-73
2022/07/10 08:20:13;;;;;;;8.18;1.80;;;30.70;32.80;;;;;;5073898;28;20195;-73
2022/07/10 08:22:40;;;;;;;3.88;1.85;;;30.70;33.60;;;;;;5073817;28;20473;-73
2022/07/10 08:25:07;;;;;;;4.03;1.30;;;30.60;33.60;;;;;;5073738;28;20048;-72
2022/07/10 08:27:32;;;;;;;3.97;1.40;;;30.40;34.00;;;;;;5073877;28;20052;-72
2022/07/10 08:29:58;;;;;;;3.38;1.20;;;30.40;33.90;;;;;;5073924;28;20112;-73
2022/07/10 08:32:24;;;;;;;4.22;1.55;;;30.40;34.40;;;;;;5074125;28;20028;-71
2022/07/10 08:34:50;;;;;;;5.78;1.67;;;30.40;34.50;;;;;;5073967;28;20066;-73
2022/07/10 08:37:16;;;;;;;6.32;1.23;;;30.30;34.80;;;;;;5074098;28;20464;-74
2022/07/10 08:39:42;;;;;;;4.03;1.50;;;30.10;35.40;;;;;;5072337;28;20112;-73
2022/07/10 08:42:10;;;;;;;5.38;1.55;;;30.10;35.30;;;;;;5073734;28;20099;-72
2022/07/10 08:44:37;;;;;;;9.25;3.90;;;29.90;35.70;;;;;;5073631;28;20020;-71
2022/07/10 08:47:03;;;;;;;5.60;2.00;;;29.80;35.90;;;;;;5072154;28;20447;-72
2022/07/10 08:49:32;;;;;;;5.35;1.30;;;29.80;36.00;;;;;;5073512;28;20046;-72
2022/07/10 08:52:12;;;;;;;7.15;3.65;;;29.60;37.10;;;;;;5071998;28;20055;-73
2022/07/10 08:54:39;;;;;;;7.25;2.15;;;29.60;37.90;;;;;;5072875;28;20417;-70
2022/07/10 08:57:05;;;;;;;3.85;1.50;;;29.50;38.40;;;;;;5073128;28;20043;-72
2022/07/10 08:59:31;;;;;;;4.68;1.70;;;29.50;38.60;;;;;;5073266;28;20090;-72
2022/07/10 09:01:58;;;;;;;4.00;1.63;;;29.50;39.00;;;;;;5073171;28;20115;-71
2022/07/10 09:04:25;;;;;;;6.93;2.83;;;29.50;39.10;;;;;;5072744;28;20039;-71
2022/07/10 09:06:52;;;;;;;5.75;2.20;;;29.40;39.30;;;;;;5072894;28;20517;-73
2022/07/10 09:09:19;;;;;;;4.22;2.08;;;29.40;39.40;;;;;;5071720;28;20094;-73
2022/07/10 09:11:45;;;;;;;4.28;1.88;;;29.30;39.80;;;;;;5073085;28;20024;-72
2022/07/10 09:14:15;;;;;;;3.35;1.45;;;29.30;39.90;;;;;;5073171;28;20369;-73
2022/07/10 09:16:42;;;;;;;8.50;1.83;;;29.30;40.50;;;;;;5071601;28;20079;-71
2022/07/10 09:19:22;;;;;;;3.08;1.20;;;29.20;40.60;;;;;;5072829;28;20020;-72
2022/07/10 09:21:52;;;;;;;3.25;1.40;;;29.20;40.20;;;;;;5073077;28;20033;-71
2022/07/10 09:24:19;;;;;;;6.50;1.80;;;29.30;40.70;;;;;;5073136;28;20027;-72
2022/07/10 09:27:03;;;;;;;4.63;1.70;;;29.30;40.40;;;;;;5072943;28;20036;-71
2022/07/10 09:29:30;;;;;;;5.80;2.20;;;29.40;39.70;;;;;;5072898;28;20083;-73
2022/07/10 09:32:01;;;;;;;4.90;1.73;;;29.50;39.90;;;;;;5072894;28;20043;-73
2022/07/10 09:34:41;;;;;;;6.43;1.65;;;29.50;39.30;;;;;;5072596;28;20039;-71
2022/07/10 09:37:29;;;;;;;4.75;1.35;;;29.30;39.00;;;;;;5072635;28;20036;-72
2022/07/10 09:39:58;;;;;;;7.15;1.50;;;29.20;38.80;;;;;;5071564;28;20024;-71
2022/07/10 09:42:31;;;;;;;3.28;1.30;;;29.10;39.00;;;;;;5072875;28;20474;-71
2022/07/10 09:45:24;;;;;;;2.78;1.33;;;29.10;38.80;;;;;;5072488;28;20055;-71
2022/07/10 09:47:52;;;;;;;4.40;1.30;;;29.20;38.80;;;;;;5069963;28;20556;-72
2022/07/10 09:50:27;;;;;;;3.85;1.40;;;29.20;38.40;;;;;;5072836;28;20380;-71
2022/07/10 09:52:56;;;;;;;7.35;1.77;;;29.20;37.80;;;;;;5072720;28;20040;-72
2022/07/10 09:55:29;;;;;;;5.63;2.47;;;29.30;37.30;;;;;;5072399;28;20029;-72
2022/07/10 09:58:00;;;;;;;4.93;2.50;;;29.40;37.10;;;;;;5072586;28;20084;-72
2022/07/10 10:00:30;;;;;;;4.00;1.85;;;29.50;37.20;;;;;;5072171;28;20430;-71
2022/07/10 10:03:07;;;;;;;5.38;2.08;;;29.60;37.20;;;;;;5072584;28;20028;-72
2022/07/10 10:05:36;;;;;;;5.80;1.65;;;29.70;37.40;;;;;;5073869;28;20024;-75
2022/07/10 10:08:08;;;;;;;4.78;1.40;;;29.70;37.70;;;;;;5075303;28;20457;-71
2022/07/10 10:10:35;;;;;;;4.95;1.60;;;29.80;37.40;;;;;;5076311;28;20470;-71
2022/07/10 10:13:06;;;;;;;3.55;1.10;;;29.80;36.80;;;;;;5076398;28;20099;-71
2022/07/10 10:15:33;;;;;;;3.03;1.20;;;29.80;35.80;;;;;;5076074;28;20458;-70
2022/07/10 10:18:01;;;;;;;1.55;1.08;;;29.70;35.30;;;;;;5076079;28;20060;-71
2022/07/10 10:20:37;;;;;;;2.35;1.20;;;29.70;34.00;;;;;;5074724;28;20029;-71
2022/07/10 10:23:05;;;;;;;3.25;1.38;;;29.70;33.40;;;;;;5076284;28;20039;-72
2022/07/10 10:25:33;;;;;;;2.90;1.20;;;29.80;33.60;;;;;;5076011;28;20123;-70
2022/07/10 10:28:02;;;;;;;1.42;1.00;;;29.80;33.40;;;;;;5076247;28;20029;-72
2022/07/10 10:30:29;;;;;;;2.17;1.00;;;29.90;33.60;;;;;;5076233;28;20060;-71
2022/07/10 10:32:55;;;;;;;2.00;1.20;;;29.90;33.50;;;;;;5076117;28;20036;-71
2022/07/10 10:35:49;;;;;;;3.33;1.30;;;29.90;33.40;;;;;;5076028;28;20381;-71
2022/07/10 10:38:15;;;;;;;2.95;1.17;;;30.00;34.20;;;;;;5076112;28;20025;-70
2022/07/10 10:40:41;;;;;;;4.07;1.52;;;30.00;33.40;;;;;;5076054;28;20036;-70
2022/07/10 10:43:21;;;;;;;4.93;1.30;;;30.00;33.30;;;;;;5075541;28;20381;-71
2022/07/10 10:45:47;;;;;;;3.95;1.40;;;30.00;33.00;;;;;;5075775;28;20027;-71
2022/07/10 10:48:20;;;;;;;7.47;1.35;;;30.00;32.70;;;;;;5074601;28;20365;-71
2022/07/10 10:50:50;;;;;;;2.50;1.40;;;30.10;32.70;;;;;;5075906;28;20035;-71
2022/07/10 10:53:27;;;;;;;2.67;1.20;;;30.10;31.90;;;;;;5074683;28;20032;-71
2022/07/10 10:56:06;;;;;;;3.53;1.30;;;30.10;31.60;;;;;;5075926;28;20040;-71
2022/07/10 10:58:43;;;;;;;2.53;1.02;;;30.20;31.70;;;;;;5075625;28;20048;-70
2022/07/10 11:01:20;;;;;;;1.60;1.00;;;30.20;32.30;;;;;;5075810;28;21062;-71
2022/07/10 11:04:04;;;;;;;3.47;1.27;;;30.30;31.40;;;;;;5075576;28;20035;-71
2022/07/10 11:06:42;;;;;;;3.65;1.42;;;30.30;31.10;;;;;;5074000;28;20043;-71
2022/07/10 11:09:31;;;;;;;5.30;1.38;;;30.30;31.40;;;;;;5075498;28;20423;-70
2022/07/10 11:12:10;;;;;;;2.50;1.30;;;30.40;31.00;;;;;;5075517;28;20029;-70
2022/07/10 11:14:42;;;;;;;3.40;1.13;;;30.40;31.10;;;;;;5075408;28;20090;-69
2022/07/10 11:17:11;;;;;;;2.90;1.20;;;30.50;30.90;;;;;;5073970;28;20386;-70
2022/07/10 11:19:37;;;;;;;2.17;1.00;;;30.50;30.80;;;;;;5075214;28;20046;-70
2022/07/10 11:22:33;;;;;;;4.57;1.45;;;30.60;30.60;;;;;;5075197;28;20107;-70
2022/07/10 11:25:01;;;;;;;3.70;1.42;;;30.60;30.50;;;;;;5075059;28;20115;-71
2022/07/10 11:28:01;;;;;;;4.80;1.20;;;30.70;30.20;;;;;;5075089;28;20489;-71
2022/07/10 11:30:30;;;;;;;3.58;1.25;;;30.70;30.40;;;;;;5075265;28;20024;-71
2022/07/10 11:33:03;;;;;;;3.08;1.20;;;30.80;30.70;;;;;;5075308;28;20523;-71
2022/07/10 11:35:29;;;;;;;;;;;30.80;30.30;;;;;;5074113;28;20020;-70
2022/07/10 11:37:54;;;;;;;2.50;1.23;;;30.90;30.40;;;;;;5073750;28;19974;-71
2022/07/10 11:40:20;;;;;;;5.70;1.90;;;31.00;30.70;;;;;;5074881;28;20116;-71
2022/07/10 11:42:50;;;;;;;3.90;1.50;;;31.10;30.40;;;;;;5073467;28;20028;-70
2022/07/10 11:45:36;;;;;;;4.13;1.42;;;31.20;30.00;;;;;;5074769;28;20039;-71
2022/07/10 11:48:03;;;;;;;5.05;1.13;;;31.30;29.80;;;;;;5074900;28;20040;-71
2022/07/10 11:50:36;;;;;;;5.38;1.40;;;31.30;29.80;;;;;;5074723;28;20040;-71
2022/07/10 11:53:03;;;;;;;5.68;1.50;;;31.40;29.70;;;;;;5074488;28;20089;-72
2022/07/10 11:55:31;;;;;;;3.58;1.25;;;31.40;32.30;;;;;;5075288;28;20028;-70
2022/07/10 11:57:56;;;;;;;7.78;1.40;;;31.40;33.70;;;;;;5074476;28;20028;-70
2022/07/10 12:00:29;;;;;;;8.70;1.50;;;31.40;34.80;;;;;;5074564;28;20075;-72
2022/07/10 12:02:57;;;;;;;6.90;1.30;;;31.40;36.20;;;;;;5074627;28;20029;-72
2022/07/10 12:05:36;;;;;;;4.43;1.35;;;31.40;35.80;;;;;;5074484;28;20024;-72
2022/07/10 12:08:03;;;;;;;4.82;1.35;;;31.30;36.70;;;;;;5073038;28;20043;-73
2022/07/10 12:10:30;;;;;;;2.72;1.13;;;31.40;36.20;;;;;;5074374;28;20019;-73
2022/07/10 12:13:13;;;;;;;3.13;1.40;;;31.40;36.10;;;;;;5072919;28;20028;-72
2022/07/10 12:15:45;;;;;;;6.17;1.87;;;31.30;36.20;;;;;;5072362;28;20036;-73
2022/07/10 12:18:17;;;;;;;7.72;1.60;;;31.40;36.30;;;;;;5074175;28;20271;-72
2022/07/10 12:20:47;;;;;;;7.10;1.48;;;31.40;36.40;;;;;;5074402;28;20031;-70
2022/07/10 12:23:17;;;;;;;6.05;1.30;;;31.40;36.30;;;;;;5074272;28;20024;-73
2022/07/10 12:25:44;;;;;;;6.40;2.20;;;31.30;36.80;;;;;;5073812;28;20052;-73
2022/07/10 12:28:12;;;;;;;4.20;1.55;;;31.30;36.80;;;;;;5074095;28;20489;-72
2022/07/10 12:30:38;;;;;;;5.05;1.48;;;31.30;37.00;;;;;;5073890;28;20378;-73
2022/07/10 12:33:09;;;;;;;3.70;1.50;;;31.30;37.10;;;;;;5072526;28;20024;-72
2022/07/10 12:35:55;;;;;;;3.42;1.40;;;31.40;37.30;;;;;;5074241;28;20116;-72
2022/07/10 12:38:25;;;;;;;5.68;1.65;;;31.40;37.60;;;;;;5074146;28;20457;-71
2022/07/10 12:41:08;;;;;;;8.98;2.58;;;31.40;37.60;;;;;;5073747;28;20108;-70
2022/07/10 12:43:34;;;;;;;5.72;1.40;;;31.30;38.20;;;;;;5073901;28;20028;-72
2022/07/10 12:46:12;;;;;;;5.43;1.45;;;31.30;37.70;;;;;;5073635;28;20024;-74
2022/07/10 12:48:40;;;;;;;3.88;1.40;;;31.20;38.00;;;;;;5073707;28;20126;-72
2022/07/10 12:51:26;;;;;;;2.75;1.20;;;31.20;37.80;;;;;;5073530;28;20058;-73
2022/07/10 12:53:52;;;;;;;4.40;1.33;;;31.30;37.90;;;;;;5073391;28;20028;-72
2022/07/10 12:56:28;;;;;;;5.82;1.48;;;31.40;37.70;;;;;;5071973;28;20032;-72
2022/07/10 12:58:54;;;;;;;4.85;1.30;;;31.30;37.50;;;;;;5073673;28;20477;-73
2022/07/10 13:01:19;;;;;;;4.50;1.30;;;31.20;37.70;;;;;;5073502;28;20008;-73